CDT,Max TemperatureF,Mean TemperatureF,Min TemperatureF,Max Dew PointF,MeanDew PointF,Min DewpointF,Max Humidity, Mean Humidity, Min Humidity, Max Sea Level PressureIn, Mean Sea Level PressureIn, Min Sea Level PressureIn, Max VisibilityMiles, Mean VisibilityMiles, Min VisibilityMiles, Max Wind SpeedMPH, Mean Wind SpeedMPH, Max Gust SpeedMPH,PrecipitationIn, CloudCover, Events, WindDirDegrees
2012-3-1,39,37,35,32,30,28,89,80,70,29.87,29.79,29.64,10,10,6,16,7,23,T,8,Snow,258
2012-3-2,40,36,32,32,30,24,89,80,70,29.76,29.54,29.37,10,6,0,24,14,32,0.44,7,Rain-Snow,355
2012-3-3,32,30,28,23,22,20,75,69,63,29.86,29.74,29.61,10,9,4,24,13,30,T,8,Snow,281
2012-3-4,29,26,22,22,19,16,81,75,69,30.08,29.91,29.82,10,9,5,13,7,15,T,8,Snow,305
2012-3-5,33,25,17,24,20,15,92,75,58,30.39,30.26,30.07,10,9,5,21,7,25,T,4,Snow,206
2012-3-6,67,49,30,41,33,24,78,56,34,30.18,29.96,29.83,10,10,10,32,18,43,0.00,2,,183
2012-3-7,67,57,47,49,44,36,71,60,48,29.94,29.85,29.75,10,9,4,36,21,44,0.07,8,Rain,209
2012-3-8,47,41,34,43,27,19,89,64,39,30.26,30.09,29.84,10,10,6,30,16,37,0.11,4,Rain,291
2012-3-9,40,34,27,25,9,3,64,43,22,30.58,30.49,30.25,10,10,10,21,10,29,0.00,1,,327
2012-3-10,61,44,27,30,23,16,68,48,27,30.49,30.32,30.19,10,10,10,29,15,35,0.00,1,,191
2012-3-11,66,50,33,46,32,26,77,52,26,30.27,30.15,29.96,10,10,5,25,11,33,0.04,5,Rain,167
2012-3-12,62,56,50,54,50,45,93,80,67,29.98,29.85,29.76,10,7,2,22,11,30,0.69,7,Rain-Thunderstorm,202
2012-3-13,68,54,39,46,38,28,92,57,22,30.13,30.06,29.95,10,10,8,13,5,18,0.00,1,,190
2012-3-14,79,64,49,60,52,36,93,71,48,30.03,29.96,29.88,10,10,10,24,11,30,0.00,3,,189
2012-3-15,82,68,54,60,55,49,100,68,36,30.02,29.97,29.93,10,9,4,16,6,24,0.01,2,,206
2012-3-16,80,64,48,60,54,45,93,71,48,30.06,30.02,29.97,10,8,4,17,7,23,0.00,1,,175
2012-3-17,82,70,57,63,57,53,86,68,49,30.08,30.01,29.94,10,10,10,23,11,28,0.05,4,Rain-Thunderstorm,167
2012-3-18,81,68,54,60,55,50,86,66,45,30.04,29.98,29.91,10,10,10,23,11,29,0.00,4,,171
2012-3-19,77,70,62,63,60,57,93,77,60,30.02,29.94,29.86,10,9,4,23,12,28,0.23,5,Rain,169
2012-3-20,83,72,61,58,52,47,72,50,28,30.03,29.95,29.90,10,10,10,31,16,40,0.00,3,,175
2012-3-21,84,73,62,57,53,49,72,52,31,30.09,30.03,30.00,10,10,10,24,10,31,0.00,4,,164
2012-3-22,79,70,61,60,56,51,87,66,45,30.08,30.05,30.02,10,10,10,22,9,26,0.01,7,Rain,152
2012-3-23,71,62,53,61,58,51,93,75,57,30.00,29.92,29.81,10,7,2,15,7,18,0.24,7,Rain-Thunderstorm,121
2012-3-24,69,60,51,55,53,50,100,80,59,29.98,29.88,29.82,10,6,0,14,5,17,0.00,8,Fog,5
2012-3-25,76,60,44,55,52,38,93,68,43,30.18,30.04,29.98,10,9,5,20,7,25,0.00,5,,9
2012-3-26,47,42,36,36,28,21,76,57,37,30.40,30.31,30.21,10,10,10,29,13,37,0.01,8,Rain,77
2012-3-27,74,57,40,56,39,23,73,57,40,30.20,29.98,29.77,10,10,10,31,19,39,0.00,5,,184
2012-3-28,65,56,46,51,41,36,71,57,43,30.06,29.93,29.80,10,10,10,26,12,32,0.00,1,,304
2012-3-29,55,46,37,37,33,30,82,65,47,30.19,30.09,29.96,10,10,10,18,9,26,T,4,Rain,84
2012-3-30,52,45,38,45,40,33,86,79,71,29.98,29.83,29.73,10,7,4,21,9,26,0.19,8,Rain-Thunderstorm,53
2012-3-31,51,45,38,41,37,34,92,78,63,30.02,29.95,29.83,10,8,6,14,8,17,0.00,8,,105